createdAt,value
2017-11-24T00:00:27.830Z,1005.33
2017-11-24T00:01:27.851Z,1005.35
2017-11-24T00:02:27.876Z,1005.35
2017-11-24T00:03:27.883Z,1005.4
2017-11-24T00:04:27.916Z,1005.37
2017-11-24T00:05:27.934Z,1005.39
2017-11-24T00:06:27.953Z,1005.45
2017-11-24T00:07:27.975Z,1005.44
2017-11-24T00:09:28.006Z,1005.48
2017-11-24T00:10:28.030Z,1005.5
2017-11-24T00:11:28.052Z,1005.48
2017-11-24T00:12:28.077Z,1005.49
2017-11-24T00:13:28.099Z,1005.49
2017-11-24T00:14:28.113Z,1005.46
2017-11-24T00:15:28.132Z,1005.46
2017-11-24T00:16:28.148Z,1005.47
2017-11-24T00:17:28.266Z,1005.5
2017-11-24T00:18:28.197Z,1005.5
2017-11-24T00:19:28.214Z,1005.49
2017-11-24T00:20:28.244Z,1005.46
2017-11-24T00:21:28.257Z,1005.47
2017-11-24T00:22:28.269Z,1005.44
2017-11-24T00:23:28.289Z,1005.45
2017-11-24T00:24:28.328Z,1005.43
2017-11-24T00:25:28.336Z,1005.45
2017-11-24T00:26:28.352Z,1005.45
2017-11-24T00:27:28.368Z,1005.47
2017-11-24T00:28:28.401Z,1005.58
2017-11-24T00:29:28.419Z,1005.56
2017-11-24T00:30:28.440Z,1005.54
2017-11-24T00:31:28.455Z,1005.58
2017-11-24T00:32:28.468Z,1005.57
2017-11-24T00:33:28.495Z,1005.55
2017-11-24T00:34:28.508Z,1005.55
2017-11-24T00:35:28.533Z,1005.5
2017-11-24T00:36:28.561Z,1005.53
2017-11-24T00:37:28.571Z,1005.46
2017-11-24T00:38:28.599Z,1005.45
2017-11-24T00:39:28.608Z,1005.47
2017-11-24T00:41:28.657Z,1005.53
2017-11-24T00:42:28.673Z,1005.52
2017-11-24T00:43:28.699Z,1005.54
2017-11-24T00:44:28.709Z,1005.56
2017-11-24T00:45:28.731Z,1005.65
2017-11-24T00:46:28.750Z,1005.67
2017-11-24T00:47:28.770Z,1005.65
2017-11-24T00:48:28.796Z,1005.68
2017-11-24T00:49:28.811Z,1005.65
2017-11-24T00:50:28.836Z,1005.64
2017-11-24T00:51:28.849Z,1005.69
2017-11-24T00:52:28.876Z,1005.68
2017-11-24T00:53:28.901Z,1005.69
2017-11-24T00:54:28.911Z,1005.71
2017-11-24T00:55:28.934Z,1005.69
2017-11-24T00:57:28.981Z,1005.68
2017-11-24T00:58:28.999Z,1005.67
2017-11-24T00:59:29.020Z,1005.71
2017-11-24T01:00:29.040Z,1005.71
2017-11-24T01:01:29.063Z,1005.72
2017-11-24T01:02:29.075Z,1005.75
2017-11-24T01:03:29.090Z,1005.75
2017-11-24T01:04:29.117Z,1005.73
2017-11-24T01:05:29.131Z,1005.76
2017-11-24T01:06:29.151Z,1005.74
2017-11-24T01:07:29.174Z,1005.75
2017-11-24T01:08:29.190Z,1005.79
2017-11-24T01:09:29.218Z,1005.81
2017-11-24T01:10:29.230Z,1005.82
2017-11-24T01:11:29.255Z,1005.86
2017-11-24T01:13:29.298Z,1005.88
2017-11-24T01:14:29.314Z,1005.83
2017-11-24T01:15:29.336Z,1005.81
2017-11-24T01:16:29.351Z,1005.84
2017-11-24T01:17:29.384Z,1005.77
2017-11-24T01:18:29.389Z,1005.76
2017-11-24T01:19:29.414Z,1005.72
2017-11-24T01:20:29.431Z,1005.74
2017-11-24T01:21:29.448Z,1005.71
2017-11-24T01:22:29.472Z,1005.71
2017-11-24T01:23:29.497Z,1005.72
2017-11-24T01:24:29.510Z,1005.74
2017-11-24T01:25:29.524Z,1005.69
2017-11-24T01:26:29.550Z,1005.61
2017-11-24T01:27:29.570Z,1005.62
2017-11-24T01:29:29.603Z,1005.63
2017-11-24T01:30:29.630Z,1005.71
2017-11-24T01:31:29.649Z,1005.7
2017-11-24T01:32:29.671Z,1005.72
2017-11-24T01:33:29.694Z,1005.75
2017-11-24T01:34:29.708Z,1005.75
2017-11-24T01:35:29.730Z,1005.77
2017-11-24T01:36:29.751Z,1005.76
2017-11-24T01:37:29.770Z,1005.79
2017-11-24T01:38:29.788Z,1005.79
2017-11-24T01:39:29.806Z,1005.76
2017-11-24T01:40:29.838Z,1005.78
2017-11-24T01:41:29.852Z,1005.77
2017-11-24T01:42:29.868Z,1005.73
2017-11-24T01:44:29.925Z,1005.78
2017-11-24T01:45:29.935Z,1005.79
2017-11-24T01:46:29.955Z,1005.8
2017-11-24T01:47:29.968Z,1005.8
2017-11-24T01:48:29.989Z,1005.74
2017-11-24T01:49:30.008Z,1005.75
2017-11-24T01:50:30.028Z,1005.74
2017-11-24T01:51:30.061Z,1005.71
2017-11-24T01:52:30.071Z,1005.7
2017-11-24T01:53:30.087Z,1005.7
2017-11-24T01:54:30.105Z,1005.67
2017-11-24T01:55:30.130Z,1005.66
2017-11-24T01:56:30.146Z,1005.65
2017-11-24T01:57:30.168Z,1005.68
2017-11-24T01:58:30.181Z,1005.74
2017-11-24T01:59:30.209Z,1005.74
2017-11-24T02:00:30.233Z,1005.74
2017-11-24T02:01:30.254Z,1005.78
2017-11-24T02:02:30.371Z,1005.78
2017-11-24T02:03:30.280Z,1005.8
2017-11-24T02:04:30.305Z,1005.8
2017-11-24T02:05:30.334Z,1005.82
2017-11-24T02:06:30.349Z,1005.81
2017-11-24T02:07:30.369Z,1005.81
2017-11-24T02:08:30.388Z,1005.82
2017-11-24T02:09:30.413Z,1005.85
2017-11-24T02:10:30.421Z,1005.83
2017-11-24T02:11:30.443Z,1005.87
2017-11-24T02:12:30.469Z,1005.86
2017-11-24T02:13:30.481Z,1005.88
2017-11-24T02:14:30.511Z,1005.91
2017-11-24T02:16:30.556Z,1005.91
2017-11-24T02:17:30.571Z,1005.93
2017-11-24T02:18:30.594Z,1005.94
2017-11-24T02:19:30.606Z,1006
2017-11-24T02:20:30.620Z,1005.95
2017-11-24T02:21:30.655Z,1005.92
2017-11-24T02:22:30.673Z,1005.92
2017-11-24T02:23:30.687Z,1006.01
2017-11-24T02:24:30.703Z,1005.97
2017-11-24T02:25:30.735Z,1006
2017-11-24T02:26:30.742Z,1006
2017-11-24T02:27:30.769Z,1005.95
2017-11-24T02:28:30.785Z,1005.92
2017-11-24T02:29:30.810Z,1005.86
2017-11-24T02:30:30.831Z,1005.83
2017-11-24T02:32:30.865Z,1005.87
2017-11-24T02:33:30.893Z,1005.83
2017-11-24T02:34:30.905Z,1005.84
2017-11-24T02:35:30.933Z,1005.79
2017-11-24T02:36:30.940Z,1005.79
2017-11-24T02:37:30.962Z,1005.72
2017-11-24T02:38:30.985Z,1005.68
2017-11-24T02:39:31.005Z,1005.69
2017-11-24T02:40:31.032Z,1005.69
2017-11-24T02:41:31.043Z,1005.71
2017-11-24T02:42:31.060Z,1005.7
2017-11-24T02:43:31.081Z,1005.68
2017-11-24T02:44:31.110Z,1005.71
2017-11-24T02:45:31.134Z,1005.7
2017-11-24T02:46:31.154Z,1005.7
2017-11-24T02:48:31.186Z,1005.7
2017-11-24T02:49:31.209Z,1005.69
2017-11-24T02:50:31.227Z,1005.75
2017-11-24T02:51:31.247Z,1005.76
2017-11-24T02:52:31.264Z,1005.78
2017-11-24T02:53:31.294Z,1005.8
2017-11-24T02:54:31.303Z,1005.83
2017-11-24T02:55:31.326Z,1005.87
2017-11-24T02:56:31.358Z,1005.89
2017-11-24T02:57:31.360Z,1005.88
2017-11-24T02:58:31.384Z,1005.83
2017-11-24T02:59:31.406Z,1005.81
2017-11-24T03:00:31.433Z,1005.8
2017-11-24T03:01:31.453Z,1005.79
2017-11-24T03:02:31.473Z,1005.8
2017-11-24T03:04:31.513Z,1005.76
2017-11-24T03:05:31.527Z,1005.73
2017-11-24T03:06:31.540Z,1005.67
2017-11-24T03:07:31.566Z,1005.65
2017-11-24T03:08:31.595Z,1005.62
2017-11-24T03:09:31.610Z,1005.63
2017-11-24T03:10:31.637Z,1005.62
2017-11-24T03:11:31.648Z,1005.62
2017-11-24T03:12:31.667Z,1005.59
2017-11-24T03:13:31.692Z,1005.61
2017-11-24T03:14:31.711Z,1005.53
2017-11-24T03:15:31.725Z,1005.57
2017-11-24T03:16:31.742Z,1005.55
2017-11-24T03:17:31.761Z,1005.51
2017-11-24T03:19:31.805Z,1005.47
2017-11-24T03:20:31.831Z,1005.57
2017-11-24T03:21:31.857Z,1005.52
2017-11-24T03:22:31.863Z,1005.55
2017-11-24T03:23:31.889Z,1005.52
2017-11-24T03:24:31.901Z,1005.51
2017-11-24T03:25:31.927Z,1005.56
2017-11-24T03:26:31.952Z,1005.61
2017-11-24T03:27:31.971Z,1005.62
2017-11-24T03:28:31.987Z,1005.61
2017-11-24T03:29:32.005Z,1005.62
2017-11-24T03:30:32.029Z,1005.6
2017-11-24T03:31:32.047Z,1005.61
2017-11-24T03:32:32.074Z,1005.62
2017-11-24T03:33:32.101Z,1005.63
2017-11-24T03:34:32.111Z,1005.63
2017-11-24T03:35:32.129Z,1005.64
2017-11-24T03:36:32.156Z,1005.66
2017-11-24T03:37:32.163Z,1005.63
2017-11-24T03:38:32.187Z,1005.65
2017-11-24T03:39:32.205Z,1005.59
2017-11-24T03:40:32.229Z,1005.64
2017-11-24T03:41:32.241Z,1005.62
2017-11-24T03:42:32.272Z,1005.59
2017-11-24T03:43:32.285Z,1005.63
2017-11-24T03:44:32.307Z,1005.62
2017-11-24T03:45:32.341Z,1005.58
2017-11-24T03:46:32.353Z,1005.5
2017-11-24T03:47:32.465Z,1005.53
2017-11-24T03:48:32.385Z,1005.5
2017-11-24T03:49:32.402Z,1005.51
2017-11-24T03:51:32.443Z,1005.53
2017-11-24T03:52:32.472Z,1005.49
2017-11-24T03:53:32.485Z,1005.51
2017-11-24T03:54:32.509Z,1005.52
2017-11-24T03:55:32.530Z,1005.58
2017-11-24T03:56:32.549Z,1005.57
2017-11-24T03:57:32.573Z,1005.57
2017-11-24T03:58:32.587Z,1005.56
2017-11-24T03:59:32.607Z,1005.56
2017-11-24T04:00:32.629Z,1005.51
2017-11-24T04:01:32.647Z,1005.48
2017-11-24T04:02:32.667Z,1005.42
2017-11-24T04:03:32.683Z,1005.47
2017-11-24T04:04:32.703Z,1005.51
2017-11-24T04:05:32.731Z,1005.51
2017-11-24T04:07:32.761Z,1005.49
2017-11-24T04:08:32.783Z,1005.5
2017-11-24T04:09:32.807Z,1005.45
2017-11-24T04:10:32.825Z,1005.43
2017-11-24T04:11:32.854Z,1005.44
2017-11-24T04:12:32.879Z,1005.42
2017-11-24T04:13:32.887Z,1005.37
2017-11-24T04:14:32.901Z,1005.36
2017-11-24T04:15:32.922Z,1005.37
2017-11-24T04:16:32.950Z,1005.35
2017-11-24T04:17:32.969Z,1005.38
2017-11-24T04:18:32.984Z,1005.33
2017-11-24T04:19:33.013Z,1005.3
2017-11-24T04:20:33.024Z,1005.29
2017-11-24T04:21:33.050Z,1005.22
2017-11-24T04:23:33.084Z,1005.17
2017-11-24T04:24:33.101Z,1005.13
2017-11-24T04:25:33.120Z,1005.12
2017-11-24T04:26:33.145Z,1005.12
2017-11-24T04:27:33.165Z,1005.08
2017-11-24T04:28:33.192Z,1004.99
2017-11-24T04:29:33.207Z,1004.99
2017-11-24T04:30:33.230Z,1004.94
2017-11-24T04:31:33.242Z,1004.96
2017-11-24T04:32:33.269Z,1004.97
2017-11-24T04:33:33.293Z,1004.98
2017-11-24T04:34:33.303Z,1005.01
2017-11-24T04:35:33.328Z,1004.99
2017-11-24T04:36:33.337Z,1005
2017-11-24T04:37:33.372Z,1005.02
2017-11-24T04:39:33.407Z,1005.01
2017-11-24T04:40:33.426Z,1005.07
2017-11-24T04:41:33.437Z,1005.09
2017-11-24T04:42:33.462Z,1005.09
2017-11-24T04:43:33.481Z,1005.11
2017-11-24T04:44:33.507Z,1005.09
2017-11-24T04:45:33.627Z,1005.12
2017-11-24T04:46:33.540Z,1005.12
2017-11-24T04:47:33.564Z,1005.09
2017-11-24T04:48:33.584Z,1005.11
2017-11-24T04:49:33.599Z,1005.12
2017-11-24T04:50:33.629Z,1005.18
2017-11-24T04:51:33.636Z,1005.17
2017-11-24T04:52:33.654Z,1005.16
2017-11-24T04:54:33.701Z,1005.08
2017-11-24T04:55:33.719Z,1005.06
2017-11-24T04:56:33.749Z,1005.09
2017-11-24T04:57:33.757Z,1005.08
2017-11-24T04:58:33.781Z,1005.05
2017-11-24T04:59:33.793Z,1005.05
2017-11-24T05:00:33.819Z,1005.07
2017-11-24T05:01:33.831Z,1005.05
2017-11-24T05:02:33.849Z,1005.07
2017-11-24T05:03:33.874Z,1005.08
2017-11-24T05:04:33.894Z,1005.15
2017-11-24T05:05:33.914Z,1005.09
2017-11-24T05:06:33.926Z,1005.1
2017-11-24T05:07:33.959Z,1005.15
2017-11-24T05:08:33.972Z,1005.13
2017-11-24T05:09:33.996Z,1005.18
2017-11-24T05:10:34.004Z,1005.16
2017-11-24T05:11:34.034Z,1005.1
2017-11-24T05:12:34.060Z,1005.04
2017-11-24T05:13:34.074Z,1005.04
2017-11-24T05:14:34.084Z,1005.03
2017-11-24T05:15:34.114Z,1005.04
2017-11-24T05:16:34.128Z,1005.01
2017-11-24T05:17:34.150Z,1005.01
2017-11-24T05:18:34.163Z,1005
2017-11-24T05:19:34.181Z,1004.96
2017-11-24T05:20:34.207Z,1004.96
2017-11-24T05:21:34.231Z,1004.98
2017-11-24T05:22:34.249Z,1004.98
2017-11-24T05:23:34.268Z,1004.97
2017-11-24T05:24:34.286Z,1004.98
2017-11-24T05:26:34.323Z,1004.87
2017-11-24T05:27:34.349Z,1004.94
2017-11-24T05:28:34.369Z,1004.89
2017-11-24T05:29:34.381Z,1004.86
2017-11-24T05:30:34.412Z,1004.82
2017-11-24T05:31:34.417Z,1004.78
2017-11-24T05:32:34.439Z,1004.78
2017-11-24T05:33:34.465Z,1004.67
2017-11-24T05:34:34.473Z,1004.64
2017-11-24T05:35:34.505Z,1004.59
2017-11-24T05:36:34.530Z,1004.55
2017-11-24T05:37:34.539Z,1004.51
2017-11-24T05:38:34.560Z,1004.53
2017-11-24T05:39:34.573Z,1004.46
2017-11-24T05:40:34.597Z,1004.47
2017-11-24T05:42:34.640Z,1004.44
2017-11-24T05:43:34.658Z,1004.45
2017-11-24T05:44:34.679Z,1004.41
2017-11-24T05:45:34.693Z,1004.46
2017-11-24T05:46:34.733Z,1004.5
2017-11-24T05:47:34.727Z,1004.52
2017-11-24T05:48:34.751Z,1004.59
2017-11-24T05:49:34.768Z,1004.58
2017-11-24T05:50:34.784Z,1004.56
2017-11-24T05:51:34.808Z,1004.61
2017-11-24T05:52:34.834Z,1004.57
2017-11-24T05:53:34.843Z,1004.55
2017-11-24T05:54:34.864Z,1004.54
2017-11-24T05:55:34.893Z,1004.56
2017-11-24T05:56:34.951Z,1004.6
2017-11-24T05:58:34.942Z,1004.67
2017-11-24T05:59:34.961Z,1004.66
2017-11-24T06:00:34.989Z,1004.7
2017-11-24T06:01:34.999Z,1004.72
2017-11-24T06:02:35.019Z,1004.74
2017-11-24T06:03:35.046Z,1004.72
2017-11-24T06:04:35.066Z,1004.76
2017-11-24T06:05:35.079Z,1004.79
2017-11-24T06:06:35.110Z,1004.83
2017-11-24T06:07:35.124Z,1004.8
2017-11-24T06:08:35.136Z,1004.79
2017-11-24T06:09:35.164Z,1004.8
2017-11-24T06:10:35.177Z,1004.78
2017-11-24T06:11:35.199Z,1004.74
2017-11-24T06:12:35.224Z,1004.75
2017-11-24T06:14:35.257Z,1004.63
2017-11-24T06:15:35.282Z,1004.64
2017-11-24T06:16:35.297Z,1004.62
2017-11-24T06:17:35.311Z,1004.67
2017-11-24T06:18:35.335Z,1004.66
2017-11-24T06:19:35.350Z,1004.63
2017-11-24T06:20:35.377Z,1004.63
2017-11-24T06:21:35.392Z,1004.63
2017-11-24T06:22:35.409Z,1004.58
2017-11-24T06:23:35.442Z,1004.58
2017-11-24T06:24:35.455Z,1004.57
2017-11-24T06:25:35.474Z,1004.55
2017-11-24T06:26:35.497Z,1004.54
2017-11-24T06:27:35.515Z,1004.54
2017-11-24T06:29:35.554Z,1004.45
2017-11-24T06:30:35.566Z,1004.33
2017-11-24T06:31:35.591Z,1004.32
2017-11-24T06:32:35.601Z,1004.28
2017-11-24T06:33:35.629Z,1004.25
2017-11-24T06:34:35.640Z,1004.3
2017-11-24T06:35:35.666Z,1004.24
2017-11-24T06:36:35.679Z,1004.21
2017-11-24T06:37:35.711Z,1004.24
2017-11-24T06:38:35.724Z,1004.25
2017-11-24T06:39:35.744Z,1004.28
2017-11-24T06:40:35.770Z,1004.33
2017-11-24T06:41:35.785Z,1004.33
2017-11-24T06:42:35.804Z,1004.34
2017-11-24T06:43:35.827Z,1004.3
2017-11-24T06:44:35.851Z,1004.24
2017-11-24T06:45:35.864Z,1004.21
2017-11-24T06:46:35.883Z,1004.15
2017-11-24T06:47:35.908Z,1004.15
2017-11-24T06:48:35.920Z,1004.15
2017-11-24T06:49:35.943Z,1004.13
2017-11-24T06:50:35.959Z,1004.16
2017-11-24T06:51:35.973Z,1004.12
2017-11-24T06:52:35.993Z,1004.13
2017-11-24T06:53:36.017Z,1004.17
2017-11-24T06:54:36.034Z,1004.19
2017-11-24T06:55:36.064Z,1004.22
2017-11-24T06:56:36.086Z,1004.21
2017-11-24T06:57:36.095Z,1004.24
2017-11-24T06:58:36.119Z,1004.22
2017-11-24T06:59:36.132Z,1004.21
2017-11-24T07:01:36.175Z,1004.21
2017-11-24T07:02:36.198Z,1004.14
2017-11-24T07:03:36.229Z,1004.08
2017-11-24T07:04:36.233Z,1003.98
2017-11-24T07:05:36.257Z,1004.04
2017-11-24T07:06:36.269Z,1004.03
2017-11-24T07:07:36.284Z,1003.98
2017-11-24T07:08:36.308Z,1004.04
2017-11-24T07:09:36.335Z,1003.95
2017-11-24T07:10:36.354Z,1003.96
2017-11-24T07:11:36.371Z,1003.97
2017-11-24T07:12:36.384Z,1003.97
2017-11-24T07:13:36.405Z,1003.93
2017-11-24T07:14:36.428Z,1003.92
2017-11-24T07:15:36.442Z,1003.89
2017-11-24T07:17:36.482Z,1003.9
2017-11-24T07:18:36.514Z,1003.88
2017-11-24T07:19:36.526Z,1003.85
2017-11-24T07:20:36.549Z,1003.87
2017-11-24T07:21:36.563Z,1003.79
2017-11-24T07:22:36.584Z,1003.83
2017-11-24T07:23:36.597Z,1003.79
2017-11-24T07:24:36.623Z,1003.78
2017-11-24T07:25:36.641Z,1003.83
2017-11-24T07:26:36.656Z,1003.78
2017-11-24T07:27:36.675Z,1003.78
2017-11-24T07:28:36.711Z,1003.66
2017-11-24T07:29:36.715Z,1003.63
2017-11-24T07:30:36.735Z,1003.59
2017-11-24T07:31:36.762Z,1003.57
2017-11-24T07:33:36.801Z,1003.55
2017-11-24T07:34:36.920Z,1003.51
2017-11-24T07:35:36.833Z,1003.55
2017-11-24T07:36:36.859Z,1003.52
2017-11-24T07:37:36.874Z,1003.52
2017-11-24T07:38:36.903Z,1003.51
2017-11-24T07:39:36.918Z,1003.52
2017-11-24T07:40:36.931Z,1003.47
2017-11-24T07:41:36.953Z,1003.51
2017-11-24T07:42:36.979Z,1003.48
2017-11-24T07:43:36.998Z,1003.47
2017-11-24T07:44:37.018Z,1003.49
2017-11-24T07:45:37.038Z,1003.51
2017-11-24T07:46:37.059Z,1003.52
2017-11-24T07:47:37.071Z,1003.5
2017-11-24T07:49:37.119Z,1003.52
2017-11-24T07:50:37.145Z,1003.61
2017-11-24T07:51:37.157Z,1003.59
2017-11-24T07:52:37.177Z,1003.55
2017-11-24T07:53:37.191Z,1003.54
2017-11-24T07:54:37.211Z,1003.5
2017-11-24T07:55:37.230Z,1003.44
2017-11-24T07:56:37.261Z,1003.37
2017-11-24T07:57:37.276Z,1003.36
2017-11-24T07:58:37.293Z,1003.33
2017-11-24T07:59:37.318Z,1003.36
2017-11-24T08:00:37.332Z,1003.33
2017-11-24T08:01:37.358Z,1003.29
2017-11-24T08:02:37.374Z,1003.25
2017-11-24T08:04:37.420Z,1003.18
2017-11-24T08:05:37.432Z,1003.1
2017-11-24T08:06:37.460Z,1003.07
2017-11-24T08:07:37.478Z,1003.05
2017-11-24T08:08:37.494Z,1003.1
2017-11-24T08:09:37.520Z,1003.07
2017-11-24T08:10:37.533Z,1003.08
2017-11-24T08:11:37.559Z,1003.06
2017-11-24T08:12:37.575Z,1003.08
2017-11-24T08:13:37.695Z,1003.03
2017-11-24T08:14:37.614Z,1003.08
2017-11-24T08:15:37.634Z,1003
2017-11-24T08:16:37.655Z,1002.97
2017-11-24T08:17:37.681Z,1002.95
2017-11-24T08:18:37.702Z,1002.94
2017-11-24T08:19:37.715Z,1002.91
2017-11-24T08:20:37.741Z,1003.01
2017-11-24T08:21:37.761Z,1003.05
2017-11-24T08:22:37.803Z,1003.04
2017-11-24T08:23:37.803Z,1003.03
2017-11-24T08:24:37.824Z,1003.08
2017-11-24T08:25:37.837Z,1003.12
2017-11-24T08:26:37.859Z,1003.04
2017-11-24T08:27:37.879Z,1003.08
2017-11-24T08:28:37.899Z,1003.07
2017-11-24T08:29:37.924Z,1003.1
2017-11-24T08:30:37.945Z,1003.01
2017-11-24T08:31:37.960Z,1003.02
2017-11-24T08:32:37.990Z,1003.04
2017-11-24T08:33:38.001Z,1002.98
2017-11-24T08:34:38.021Z,1002.96
2017-11-24T08:36:38.061Z,1002.98
2017-11-24T08:37:38.083Z,1003.05
2017-11-24T08:38:38.109Z,1002.97
2017-11-24T08:39:38.124Z,1002.97
2017-11-24T08:40:38.143Z,1002.97
2017-11-24T08:41:38.171Z,1002.89
2017-11-24T08:42:38.191Z,1002.9
2017-11-24T08:43:38.214Z,1002.85
2017-11-24T08:44:38.233Z,1002.89
2017-11-24T08:45:38.247Z,1002.93
2017-11-24T08:46:38.272Z,1002.99
2017-11-24T08:47:38.288Z,1002.97
2017-11-24T08:48:38.315Z,1002.92
2017-11-24T08:49:38.336Z,1002.72
2017-11-24T08:50:38.355Z,1002.81
2017-11-24T08:52:38.393Z,1002.84
2017-11-24T08:53:38.418Z,1002.86
2017-11-24T08:54:38.445Z,1002.85
2017-11-24T08:55:38.451Z,1002.9
2017-11-24T08:56:38.479Z,1002.86
2017-11-24T08:57:38.501Z,1002.89
2017-11-24T08:58:38.524Z,1002.78
2017-11-24T08:59:38.541Z,1002.74
2017-11-24T09:00:38.563Z,1002.74
2017-11-24T09:01:38.582Z,1002.68
2017-11-24T09:02:38.597Z,1002.74
2017-11-24T09:03:38.619Z,1002.76
2017-11-24T09:04:38.645Z,1002.75
2017-11-24T09:05:38.661Z,1002.74
2017-11-24T09:06:38.687Z,1002.62
2017-11-24T09:08:38.727Z,1002.52
2017-11-24T09:09:38.742Z,1002.54
2017-11-24T09:10:38.763Z,1002.51
2017-11-24T09:11:38.789Z,1002.5
2017-11-24T09:12:38.809Z,1002.53
2017-11-24T09:13:38.830Z,1002.49
2017-11-24T09:14:38.860Z,1002.45
2017-11-24T09:15:38.870Z,1002.4
2017-11-24T09:16:38.893Z,1002.41
2017-11-24T09:17:38.913Z,1002.48
2017-11-24T09:18:38.932Z,1002.46
2017-11-24T09:19:38.948Z,1002.44
2017-11-24T09:20:38.969Z,1002.43
2017-11-24T09:21:38.996Z,1002.48
2017-11-24T09:22:39.010Z,1002.45
2017-11-24T09:24:39.051Z,1002.41
2017-11-24T09:25:39.081Z,1002.44
2017-11-24T09:26:39.095Z,1002.45
2017-11-24T09:27:39.123Z,1002.4
2017-11-24T09:28:39.141Z,1002.39
2017-11-24T09:29:39.159Z,1002.42
2017-11-24T09:30:39.174Z,1002.37
2017-11-24T09:31:39.197Z,1002.41
2017-11-24T09:32:39.225Z,1002.43
2017-11-24T09:33:39.244Z,1002.39
2017-11-24T09:34:39.264Z,1002.35
2017-11-24T09:35:39.281Z,1002.33
2017-11-24T09:36:39.300Z,1002.3
2017-11-24T09:37:39.320Z,1002.26
2017-11-24T09:39:39.370Z,1002.2
2017-11-24T09:40:39.390Z,1002.23
2017-11-24T09:41:39.412Z,1002.2
2017-11-24T09:42:39.434Z,1002.21
2017-11-24T09:43:39.451Z,1002.16
2017-11-24T09:44:39.467Z,1002.22
2017-11-24T09:45:39.491Z,1002.18
2017-11-24T09:46:39.511Z,1002.17
2017-11-24T09:47:39.532Z,1002.21
2017-11-24T09:48:39.560Z,1002.16
2017-11-24T09:49:39.578Z,1002.21
2017-11-24T09:50:39.596Z,1002.15
2017-11-24T09:51:39.622Z,1002.15
2017-11-24T09:52:39.644Z,1002.24
2017-11-24T09:53:39.659Z,1002.16
2017-11-24T09:54:39.682Z,1002.13
2017-11-24T09:55:39.706Z,1002.23
2017-11-24T09:56:39.738Z,1002.13
2017-11-24T09:57:39.749Z,1002.22
2017-11-24T09:58:39.770Z,1002.2
2017-11-24T09:59:39.793Z,1002.19
2017-11-24T10:00:39.814Z,1002.21
2017-11-24T10:01:39.836Z,1002.08
2017-11-24T10:02:39.851Z,1002.07
2017-11-24T10:03:39.878Z,1002.08
2017-11-24T10:04:39.893Z,1002.02
2017-11-24T10:05:39.920Z,1002.05
2017-11-24T10:06:39.935Z,1002.06
2017-11-24T10:07:39.956Z,1001.9
2017-11-24T10:08:39.978Z,1001.95
2017-11-24T10:09:40.006Z,1001.95
2017-11-24T10:11:40.050Z,1001.98
2017-11-24T10:12:40.069Z,1001.97
2017-11-24T10:13:40.087Z,1001.94
2017-11-24T10:14:40.113Z,1001.94
2017-11-24T10:15:40.128Z,1001.95
2017-11-24T10:16:40.156Z,1001.96
2017-11-24T10:17:40.176Z,1001.89
2017-11-24T10:18:40.198Z,1001.9
2017-11-24T10:19:40.221Z,1001.86
2017-11-24T10:20:40.240Z,1001.8
2017-11-24T10:21:40.265Z,1001.84
2017-11-24T10:22:40.283Z,1001.8
2017-11-24T10:23:40.305Z,1001.72
2017-11-24T10:24:40.325Z,1001.7
2017-11-24T10:25:40.351Z,1001.79
2017-11-24T10:27:40.393Z,1001.72
2017-11-24T10:28:40.413Z,1001.8
2017-11-24T10:29:40.533Z,1001.71
2017-11-24T10:30:40.449Z,1001.83
2017-11-24T10:31:40.479Z,1001.72
2017-11-24T10:32:40.493Z,1001.75
2017-11-24T10:33:40.514Z,1001.78
2017-11-24T10:34:40.542Z,1001.76
2017-11-24T10:35:40.567Z,1001.83
2017-11-24T10:36:40.586Z,1001.77
2017-11-24T10:37:40.608Z,1001.75
2017-11-24T10:38:40.630Z,1001.79
2017-11-24T10:39:40.642Z,1001.71
2017-11-24T10:40:40.667Z,1001.81
2017-11-24T10:41:40.687Z,1001.8
2017-11-24T10:43:40.737Z,1001.72
2017-11-24T10:44:40.752Z,1001.81
2017-11-24T10:45:40.777Z,1001.83
2017-11-24T10:46:40.807Z,1001.82
2017-11-24T10:47:40.819Z,1001.81
2017-11-24T10:48:40.847Z,1001.81
2017-11-24T10:49:40.863Z,1001.82
2017-11-24T10:50:40.885Z,1001.94
2017-11-24T10:51:40.915Z,1001.82
2017-11-24T10:52:40.932Z,1001.84
2017-11-24T10:53:40.957Z,1001.81
2017-11-24T10:54:40.985Z,1001.81
2017-11-24T10:55:41.001Z,1001.82
2017-11-24T10:56:41.017Z,1001.88
2017-11-24T10:57:41.039Z,1001.82
2017-11-24T10:59:41.091Z,1001.79
2017-11-24T11:00:41.107Z,1001.82
2017-11-24T11:01:41.133Z,1001.83
2017-11-24T11:02:41.157Z,1001.84
2017-11-24T11:03:41.173Z,1001.87
2017-11-24T11:04:41.201Z,1001.86
2017-11-24T11:05:41.223Z,1001.63
2017-11-24T11:06:41.249Z,1001.79
2017-11-24T11:07:41.261Z,1001.66
2017-11-24T11:08:41.289Z,1001.67
2017-11-24T11:09:41.305Z,1001.81
2017-11-24T11:10:41.326Z,1001.62
2017-11-24T11:11:41.349Z,1001.8
2017-11-24T11:12:41.372Z,1001.77
2017-11-24T11:14:41.417Z,1001.86
2017-11-24T11:15:41.439Z,1001.83
2017-11-24T11:16:41.467Z,1001.81
2017-11-24T11:17:41.483Z,1001.78
2017-11-24T11:18:41.513Z,1001.82
2017-11-24T11:19:41.526Z,1001.83
2017-11-24T11:20:41.555Z,1001.85
2017-11-24T11:21:41.579Z,1001.86
2017-11-24T11:22:41.593Z,1001.95
2017-11-24T11:23:41.620Z,1001.88
2017-11-24T11:24:41.636Z,1001.94
2017-11-24T11:25:41.659Z,1001.84
2017-11-24T11:26:41.690Z,1001.82
2017-11-24T11:27:41.711Z,1001.87
2017-11-24T11:28:41.731Z,1001.86
2017-11-24T11:29:41.749Z,1001.96
2017-11-24T11:30:41.770Z,1001.91
2017-11-24T11:31:41.792Z,1001.86
2017-11-24T11:32:41.814Z,1001.83
2017-11-24T11:33:41.843Z,1001.89
2017-11-24T11:34:41.859Z,1001.79
2017-11-24T11:35:41.886Z,1001.91
2017-11-24T11:36:41.908Z,1001.79
2017-11-24T11:37:41.937Z,1001.84
2017-11-24T11:38:41.952Z,1001.9
2017-11-24T11:39:41.970Z,1001.92
2017-11-24T11:40:41.989Z,1001.85
2017-11-24T11:41:42.021Z,1001.82
2017-11-24T11:42:42.035Z,1001.85
2017-11-24T11:43:42.057Z,1001.86
2017-11-24T11:44:42.078Z,1001.79
2017-11-24T11:46:42.122Z,1001.85
2017-11-24T11:47:42.151Z,1001.74
2017-11-24T11:48:42.180Z,1001.84
2017-11-24T11:49:42.203Z,1001.82
2017-11-24T11:50:42.217Z,1001.86
2017-11-24T11:51:42.233Z,1001.88
2017-11-24T11:52:42.255Z,1001.72
2017-11-24T11:53:42.278Z,1001.73
2017-11-24T11:54:42.306Z,1001.67
2017-11-24T11:55:42.321Z,1001.74
2017-11-24T11:56:42.350Z,1001.77
2017-11-24T11:57:42.372Z,1001.83
2017-11-24T11:58:42.409Z,1001.77
2017-11-24T11:59:42.416Z,1001.8
2017-11-24T12:00:42.438Z,1001.88
2017-11-24T12:02:42.484Z,1001.83
2017-11-24T12:03:42.500Z,1001.92
2017-11-24T12:04:42.528Z,1001.83
2017-11-24T12:05:42.543Z,1001.89
2017-11-24T12:06:42.571Z,1001.91
2017-11-24T12:07:42.594Z,1001.83
2017-11-24T12:08:42.611Z,1001.84
2017-11-24T12:09:42.632Z,1001.88
2017-11-24T12:10:42.654Z,1001.79
2017-11-24T12:11:42.683Z,1001.91
2017-11-24T12:12:42.699Z,1001.86
2017-11-24T12:13:42.725Z,1001.79
2017-11-24T12:14:42.743Z,1001.89
2017-11-24T12:15:42.771Z,1001.86
2017-11-24T12:16:42.787Z,1001.93
2017-11-24T12:18:42.837Z,1001.95
2017-11-24T12:19:42.855Z,1001.88
2017-11-24T12:20:42.882Z,1001.94
2017-11-24T12:21:42.897Z,1001.88
2017-11-24T12:22:42.926Z,1001.91
2017-11-24T12:23:42.948Z,1001.83
2017-11-24T12:24:43.064Z,1001.87
2017-11-24T12:25:42.993Z,1001.9
2017-11-24T12:26:43.013Z,1001.85
2017-11-24T12:27:43.031Z,1001.81
2017-11-24T12:28:43.057Z,1001.87
2017-11-24T12:29:43.078Z,1001.83
2017-11-24T12:30:43.108Z,1001.88
2017-11-24T12:31:43.118Z,1001.93
2017-11-24T12:32:43.146Z,1001.8
2017-11-24T12:34:43.191Z,1001.84
2017-11-24T12:35:43.212Z,1001.89
2017-11-24T12:36:43.228Z,1001.87
2017-11-24T12:37:43.256Z,1001.87
2017-11-24T12:38:43.273Z,1001.91
2017-11-24T12:39:43.296Z,1001.83
2017-11-24T12:40:43.324Z,1001.95
2017-11-24T12:41:43.346Z,1001.9
2017-11-24T12:42:43.364Z,1001.94
2017-11-24T12:43:43.397Z,1001.93
2017-11-24T12:44:43.404Z,1001.91
2017-11-24T12:45:43.427Z,1001.92
2017-11-24T12:46:43.456Z,1001.92
2017-11-24T12:47:43.472Z,1001.91
2017-11-24T12:49:43.523Z,1001.86